sensor_id;sensor_type;location;lat;lon;timestamp;pressure;altitude;pressure_sealevel;temperature;humidity
76260;BME280;65076;52.362;6.588;2023-03-16T00:00:07;101874.31;;;5.60;55.08
76260;BME280;65076;52.362;6.588;2023-03-16T00:02:39;101877.88;;;5.64;54.63
76260;BME280;65076;52.362;6.588;2023-03-16T00:05:08;101869.41;;;5.97;54.13
76260;BME280;65076;52.362;6.588;2023-03-16T00:07:36;101866.88;;;5.82;54.52
76260;BME280;65076;52.362;6.588;2023-03-16T00:10:05;101863.28;;;5.86;54.50
76260;BME280;65076;52.362;6.588;2023-03-16T00:12:33;101864.19;;;5.82;54.62
76260;BME280;65076;52.362;6.588;2023-03-16T00:15:01;101854.41;;;5.81;54.61
76260;BME280;65076;52.362;6.588;2023-03-16T00:17:31;101854.31;;;5.88;54.53
76260;BME280;65076;52.362;6.588;2023-03-16T00:20:02;101856.16;;;5.82;54.67
76260;BME280;65076;52.362;6.588;2023-03-16T00:22:32;101855.25;;;5.83;55.66
76260;BME280;65076;52.362;6.588;2023-03-16T00:25:00;101857.81;;;5.97;54.57
76260;BME280;65076;52.362;6.588;2023-03-16T00:27:29;101865.69;;;6.07;55.01
76260;BME280;65076;52.362;6.588;2023-03-16T00:29:57;101862.38;;;5.85;55.01
76260;BME280;65076;52.362;6.588;2023-03-16T00:32:32;101857.84;;;5.93;54.64
76260;BME280;65076;52.362;6.588;2023-03-16T00:35:03;101865.91;;;5.92;54.63
76260;BME280;65076;52.362;6.588;2023-03-16T00:37:35;101867.72;;;5.90;54.97
76260;BME280;65076;52.362;6.588;2023-03-16T00:40:06;101867.59;;;5.99;54.51
76260;BME280;65076;52.362;6.588;2023-03-16T00:42:36;101866.88;;;5.83;55.32
76260;BME280;65076;52.362;6.588;2023-03-16T00:45:05;101866.03;;;5.80;55.59
76260;BME280;65076;52.362;6.588;2023-03-16T00:47:36;101863.91;;;6.08;54.50
76260;BME280;65076;52.362;6.588;2023-03-16T00:50:04;101860.81;;;5.66;56.07
76260;BME280;65076;52.362;6.588;2023-03-16T00:52:33;101853.50;;;5.80;55.69
76260;BME280;65076;52.362;6.588;2023-03-16T00:55:01;101842.47;;;6.03;55.58
76260;BME280;65076;52.362;6.588;2023-03-16T00:57:30;101835.75;;;5.66;56.59
76260;BME280;65076;52.362;6.588;2023-03-16T00:59:58;101835.59;;;5.81;56.60
76260;BME280;65076;52.362;6.588;2023-03-16T01:02:31;101827.47;;;5.88;56.29
76260;BME280;65076;52.362;6.588;2023-03-16T01:05:04;101826.81;;;5.67;56.90
76260;BME280;65076;52.362;6.588;2023-03-16T01:07:33;101810.75;;;5.64;57.44
76260;BME280;65076;52.362;6.588;2023-03-16T01:10:02;101812.22;;;5.89;56.30
76260;BME280;65076;52.362;6.588;2023-03-16T01:12:30;101810.28;;;6.02;56.14
76260;BME280;65076;52.362;6.588;2023-03-16T01:14:59;101810.44;;;5.89;56.57
76260;BME280;65076;52.362;6.588;2023-03-16T01:17:27;101807.88;;;5.76;57.12
76260;BME280;65076;52.362;6.588;2023-03-16T01:19:55;101803.53;;;5.66;57.07
76260;BME280;65076;52.362;6.588;2023-03-16T01:22:24;101797.94;;;5.85;56.70
76260;BME280;65076;52.362;6.588;2023-03-16T01:24:53;101805.19;;;5.76;57.43
76260;BME280;65076;52.362;6.588;2023-03-16T01:27:21;101809.66;;;5.80;57.18
76260;BME280;65076;52.362;6.588;2023-03-16T01:29:51;101807.19;;;5.60;57.71
76260;BME280;65076;52.362;6.588;2023-03-16T01:32:19;101798.16;;;5.69;57.25
76260;BME280;65076;52.362;6.588;2023-03-16T01:34:47;101801.00;;;5.55;57.29
76260;BME280;65076;52.362;6.588;2023-03-16T01:37:15;101789.22;;;5.67;57.65
76260;BME280;65076;52.362;6.588;2023-03-16T01:39:44;101787.50;;;5.63;57.31
76260;BME280;65076;52.362;6.588;2023-03-16T01:42:12;101791.28;;;5.45;58.10
76260;BME280;65076;52.362;6.588;2023-03-16T01:44:51;101785.69;;;5.62;57.93
76260;BME280;65076;52.362;6.588;2023-03-16T01:47:21;101786.28;;;5.89;57.55
76260;BME280;65076;52.362;6.588;2023-03-16T01:49:53;101778.25;;;5.85;57.22
76260;BME280;65076;52.362;6.588;2023-03-16T01:52:25;101775.63;;;5.80;57.04
76260;BME280;65076;52.362;6.588;2023-03-16T01:55:02;101779.22;;;5.79;57.44
76260;BME280;65076;52.362;6.588;2023-03-16T01:57:35;101782.19;;;5.55;57.47
76260;BME280;65076;52.362;6.588;2023-03-16T02:00:10;101778.34;;;5.77;56.74
76260;BME280;65076;52.362;6.588;2023-03-16T02:02:46;101777.56;;;5.69;56.94
76260;BME280;65076;52.362;6.588;2023-03-16T02:05:21;101768.31;;;5.93;56.63
76260;BME280;65076;52.362;6.588;2023-03-16T02:07:55;101762.56;;;5.54;57.67
76260;BME280;65076;52.362;6.588;2023-03-16T02:10:27;101771.09;;;5.82;57.19
76260;BME280;65076;52.362;6.588;2023-03-16T02:12:57;101756.84;;;5.79;57.33
76260;BME280;65076;52.362;6.588;2023-03-16T02:15:25;101748.72;;;5.83;56.92
76260;BME280;65076;52.362;6.588;2023-03-16T02:17:55;101749.63;;;5.82;56.13
76260;BME280;65076;52.362;6.588;2023-03-16T02:20:32;101752.19;;;5.91;56.74
76260;BME280;65076;52.362;6.588;2023-03-16T02:23:06;101742.25;;;6.01;56.31
76260;BME280;65076;52.362;6.588;2023-03-16T02:25:52;101747.88;;;5.80;56.54
76260;BME280;65076;52.362;6.588;2023-03-16T02:28:30;101742.41;;;5.89;56.55
76260;BME280;65076;52.362;6.588;2023-03-16T02:31:04;101735.09;;;5.97;56.49
76260;BME280;65076;52.362;6.588;2023-03-16T02:33:33;101728.97;;;5.89;56.65
76260;BME280;65076;52.362;6.588;2023-03-16T02:36:02;101741.41;;;5.96;56.39
76260;BME280;65076;52.362;6.588;2023-03-16T02:38:30;101731.53;;;5.98;56.00
76260;BME280;65076;52.362;6.588;2023-03-16T02:41:00;101722.56;;;5.97;56.31
76260;BME280;65076;52.362;6.588;2023-03-16T02:43:40;101723.56;;;5.92;56.39
76260;BME280;65076;52.362;6.588;2023-03-16T02:46:14;101722.72;;;5.87;56.56
76260;BME280;65076;52.362;6.588;2023-03-16T02:48:46;101716.59;;;5.76;56.95
76260;BME280;65076;52.362;6.588;2023-03-16T02:51:20;101706.53;;;5.93;56.35
76260;BME280;65076;52.362;6.588;2023-03-16T02:53:48;101717.34;;;5.87;56.85
76260;BME280;65076;52.362;6.588;2023-03-16T02:56:16;101703.28;;;5.70;57.33
76260;BME280;65076;52.362;6.588;2023-03-16T02:58:43;101696.06;;;5.73;57.24
76260;BME280;65076;52.362;6.588;2023-03-16T03:01:11;101697.69;;;5.83;56.87
76260;BME280;65076;52.362;6.588;2023-03-16T03:03:41;101707.63;;;5.78;57.07
76260;BME280;65076;52.362;6.588;2023-03-16T03:06:09;101706.06;;;5.64;57.12
76260;BME280;65076;52.362;6.588;2023-03-16T03:08:37;101698.75;;;5.72;57.25
76260;BME280;65076;52.362;6.588;2023-03-16T03:11:05;101696.28;;;5.57;57.36
76260;BME280;65076;52.362;6.588;2023-03-16T03:13:33;101694.19;;;5.80;57.09
76260;BME280;65076;52.362;6.588;2023-03-16T03:16:03;101695.06;;;5.80;57.10
76260;BME280;65076;52.362;6.588;2023-03-16T03:18:32;101697.50;;;5.97;56.75
76260;BME280;65076;52.362;6.588;2023-03-16T03:21:01;101702.22;;;5.80;56.99
76260;BME280;65076;52.362;6.588;2023-03-16T03:23:29;101695.75;;;5.96;56.50
76260;BME280;65076;52.362;6.588;2023-03-16T03:25:58;101685.06;;;5.91;57.05
76260;BME280;65076;52.362;6.588;2023-03-16T03:28:26;101688.59;;;5.95;56.56
76260;BME280;65076;52.362;6.588;2023-03-16T03:30:54;101680.72;;;5.81;57.09
76260;BME280;65076;52.362;6.588;2023-03-16T03:33:22;101684.22;;;5.88;57.06
76260;BME280;65076;52.362;6.588;2023-03-16T03:35:53;101686.97;;;5.82;57.23
76260;BME280;65076;52.362;6.588;2023-03-16T03:38:24;101683.25;;;5.92;57.02
76260;BME280;65076;52.362;6.588;2023-03-16T03:40:53;101677.81;;;5.98;56.76
76260;BME280;65076;52.362;6.588;2023-03-16T03:43:24;101675.94;;;6.03;57.05
76260;BME280;65076;52.362;6.588;2023-03-16T03:45:55;101681.38;;;5.99;57.25
76260;BME280;65076;52.362;6.588;2023-03-16T03:48:24;101681.25;;;6.06;56.83
76260;BME280;65076;52.362;6.588;2023-03-16T03:50:53;101668.81;;;6.01;57.13
76260;BME280;65076;52.362;6.588;2023-03-16T03:53:23;101662.38;;;6.11;56.96
76260;BME280;65076;52.362;6.588;2023-03-16T03:55:51;101657.09;;;6.06;56.60
76260;BME280;65076;52.362;6.588;2023-03-16T03:58:19;101655.47;;;5.94;57.66
76260;BME280;65076;52.362;6.588;2023-03-16T04:00:47;101656.28;;;6.01;56.86
76260;BME280;65076;52.362;6.588;2023-03-16T04:03:15;101657.19;;;5.99;57.00
76260;BME280;65076;52.362;6.588;2023-03-16T04:05:43;101657.19;;;6.00;57.45
76260;BME280;65076;52.362;6.588;2023-03-16T04:08:14;101654.41;;;6.06;57.37
76260;BME280;65076;52.362;6.588;2023-03-16T04:10:43;101642.28;;;5.78;57.69
76260;BME280;65076;52.362;6.588;2023-03-16T04:13:11;101640.19;;;5.98;56.86
76260;BME280;65076;52.362;6.588;2023-03-16T04:15:39;101643.75;;;6.00;57.20
76260;BME280;65076;52.362;6.588;2023-03-16T04:18:07;101635.88;;;5.86;57.59
76260;BME280;65076;52.362;6.588;2023-03-16T04:20:34;101645.56;;;5.98;57.88
76260;BME280;65076;52.362;6.588;2023-03-16T04:23:03;101654.56;;;5.95;57.53
76260;BME280;65076;52.362;6.588;2023-03-16T04:25:31;101655.03;;;6.22;56.83
76260;BME280;65076;52.362;6.588;2023-03-16T04:28:01;101654.31;;;6.11;57.13
76260;BME280;65076;52.362;6.588;2023-03-16T04:30:29;101640.75;;;6.18;57.27
76260;BME280;65076;52.362;6.588;2023-03-16T04:32:57;101646.91;;;6.23;56.57
76260;BME280;65076;52.362;6.588;2023-03-16T04:35:26;101648.94;;;6.11;57.10
76260;BME280;65076;52.362;6.588;2023-03-16T04:37:54;101646.91;;;6.23;57.35
76260;BME280;65076;52.362;6.588;2023-03-16T04:40:22;101639.91;;;6.15;57.17
76260;BME280;65076;52.362;6.588;2023-03-16T04:42:51;101640.00;;;6.10;57.55
76260;BME280;65076;52.362;6.588;2023-03-16T04:45:21;101643.44;;;6.18;56.50
76260;BME280;65076;52.362;6.588;2023-03-16T04:47:49;101641.81;;;6.08;57.14
76260;BME280;65076;52.362;6.588;2023-03-16T04:50:18;101636.25;;;6.19;57.23
76260;BME280;65076;52.362;6.588;2023-03-16T04:52:46;101629.97;;;6.20;57.71
76260;BME280;65076;52.362;6.588;2023-03-16T04:55:14;101630.97;;;6.14;57.01
76260;BME280;65076;52.362;6.588;2023-03-16T04:57:42;101625.84;;;6.01;57.74
76260;BME280;65076;52.362;6.588;2023-03-16T05:00:11;101615.81;;;6.12;57.12
76260;BME280;65076;52.362;6.588;2023-03-16T05:02:46;101622.00;;;6.15;57.25
76260;BME280;65076;52.362;6.588;2023-03-16T05:05:15;101625.66;;;6.11;57.04
76260;BME280;65076;52.362;6.588;2023-03-16T05:07:44;101622.91;;;6.13;57.49
76260;BME280;65076;52.362;6.588;2023-03-16T05:10:14;101616.97;;;5.95;57.88
76260;BME280;65076;52.362;6.588;2023-03-16T05:12:44;101613.25;;;6.03;58.20
76260;BME280;65076;52.362;6.588;2023-03-16T05:15:12;101609.66;;;6.04;58.03
76260;BME280;65076;52.362;6.588;2023-03-16T05:17:41;101606.31;;;5.91;57.82
76260;BME280;65076;52.362;6.588;2023-03-16T05:20:12;101611.38;;;6.08;57.96
76260;BME280;65076;52.362;6.588;2023-03-16T05:22:43;101601.59;;;6.05;57.94
76260;BME280;65076;52.362;6.588;2023-03-16T05:25:14;101614.28;;;5.95;58.14
76260;BME280;65076;52.362;6.588;2023-03-16T05:27:43;101612.25;;;6.08;57.84
76260;BME280;65076;52.362;6.588;2023-03-16T05:30:14;101608.75;;;6.05;58.15
76260;BME280;65076;52.362;6.588;2023-03-16T05:32:43;101616.47;;;5.69;58.44
76260;BME280;65076;52.362;6.588;2023-03-16T05:35:13;101614.44;;;5.83;58.42
76260;BME280;65076;52.362;6.588;2023-03-16T05:37:41;101613.41;;;5.93;58.13
76260;BME280;65076;52.362;6.588;2023-03-16T05:40:12;101615.22;;;5.91;58.32
76260;BME280;65076;52.362;6.588;2023-03-16T05:42:44;101609.81;;;5.96;58.16
76260;BME280;65076;52.362;6.588;2023-03-16T05:45:16;101604.66;;;5.81;58.56
76260;BME280;65076;52.362;6.588;2023-03-16T05:47:44;101603.63;;;5.91;58.49
76260;BME280;65076;52.362;6.588;2023-03-16T05:50:15;101598.28;;;5.88;58.70
76260;BME280;65076;52.362;6.588;2023-03-16T05:52:44;101599.00;;;5.99;58.36
76260;BME280;65076;52.362;6.588;2023-03-16T05:55:14;101604.38;;;5.99;57.88
76260;BME280;65076;52.362;6.588;2023-03-16T05:57:44;101606.34;;;5.89;58.57
76260;BME280;65076;52.362;6.588;2023-03-16T06:00:13;101609.75;;;5.97;58.49
76260;BME280;65076;52.362;6.588;2023-03-16T06:02:46;101616.75;;;6.08;58.25
76260;BME280;65076;52.362;6.588;2023-03-16T06:05:18;101626.75;;;5.98;58.18
76260;BME280;65076;52.362;6.588;2023-03-16T06:07:48;101632.75;;;6.14;58.11
76260;BME280;65076;52.362;6.588;2023-03-16T06:10:17;101631.53;;;6.33;57.53
76260;BME280;65076;52.362;6.588;2023-03-16T06:12:45;101632.56;;;6.24;57.63
76260;BME280;65076;52.362;6.588;2023-03-16T06:15:13;101628.91;;;6.28;57.58
76260;BME280;65076;52.362;6.588;2023-03-16T06:17:41;101614.88;;;6.13;58.37
76260;BME280;65076;52.362;6.588;2023-03-16T06:20:11;101616.13;;;6.43;57.72
76260;BME280;65076;52.362;6.588;2023-03-16T06:22:42;101613.13;;;6.12;57.95
76260;BME280;65076;52.362;6.588;2023-03-16T06:25:11;101592.75;;;6.46;57.32
76260;BME280;65076;52.362;6.588;2023-03-16T06:27:41;101592.25;;;6.26;58.04
76260;BME280;65076;52.362;6.588;2023-03-16T06:30:10;101587.59;;;6.35;57.87
76260;BME280;65076;52.362;6.588;2023-03-16T06:32:40;101581.59;;;6.20;58.54
76260;BME280;65076;52.362;6.588;2023-03-16T06:35:08;101576.94;;;6.29;58.03
76260;BME280;65076;52.362;6.588;2023-03-16T06:37:36;101579.63;;;6.31;57.72
76260;BME280;65076;52.362;6.588;2023-03-16T06:40:07;101585.13;;;6.23;58.57
76260;BME280;65076;52.362;6.588;2023-03-16T06:42:37;101599.53;;;6.18;58.40
76260;BME280;65076;52.362;6.588;2023-03-16T06:45:06;101595.72;;;6.32;58.06
76260;BME280;65076;52.362;6.588;2023-03-16T06:47:34;101607.16;;;6.44;57.99
76260;BME280;65076;52.362;6.588;2023-03-16T06:50:03;101600.78;;;6.48;57.50
76260;BME280;65076;52.362;6.588;2023-03-16T06:52:32;101604.09;;;6.62;57.67
76260;BME280;65076;52.362;6.588;2023-03-16T06:55:00;101609.00;;;6.38;57.86
76260;BME280;65076;52.362;6.588;2023-03-16T06:57:29;101607.41;;;6.30;58.08
76260;BME280;65076;52.362;6.588;2023-03-16T06:59:57;101607.97;;;6.47;58.25
76260;BME280;65076;52.362;6.588;2023-03-16T07:02:26;101600.00;;;6.43;58.30
76260;BME280;65076;52.362;6.588;2023-03-16T07:04:53;101594.13;;;6.67;57.53
76260;BME280;65076;52.362;6.588;2023-03-16T07:07:21;101598.84;;;6.54;58.05
76260;BME280;65076;52.362;6.588;2023-03-16T07:09:49;101591.38;;;6.70;57.76
76260;BME280;65076;52.362;6.588;2023-03-16T07:12:17;101598.44;;;6.75;57.77
76260;BME280;65076;52.362;6.588;2023-03-16T07:14:47;101589.41;;;6.79;57.58
76260;BME280;65076;52.362;6.588;2023-03-16T07:17:19;101592.69;;;6.94;57.41
76260;BME280;65076;52.362;6.588;2023-03-16T07:19:47;101586.31;;;6.98;57.11
76260;BME280;65076;52.362;6.588;2023-03-16T07:22:14;101593.16;;;7.12;57.12
76260;BME280;65076;52.362;6.588;2023-03-16T07:24:42;101586.63;;;6.84;57.50
76260;BME280;65076;52.362;6.588;2023-03-16T07:27:11;101602.47;;;6.96;57.18
76260;BME280;65076;52.362;6.588;2023-03-16T07:29:38;101594.44;;;7.35;56.17
76260;BME280;65076;52.362;6.588;2023-03-16T07:32:08;101595.22;;;7.01;57.41
76260;BME280;65076;52.362;6.588;2023-03-16T07:34:37;101597.03;;;7.39;56.20
76260;BME280;65076;52.362;6.588;2023-03-16T07:37:05;101599.66;;;7.42;56.87
76260;BME280;65076;52.362;6.588;2023-03-16T07:39:34;101594.66;;;7.26;57.11
76260;BME280;65076;52.362;6.588;2023-03-16T07:42:02;101600.38;;;7.50;57.14
76260;BME280;65076;52.362;6.588;2023-03-16T07:44:31;101597.56;;;7.16;57.27
76260;BME280;65076;52.362;6.588;2023-03-16T07:46:59;101606.09;;;7.37;56.34
76260;BME280;65076;52.362;6.588;2023-03-16T07:49:28;101610.34;;;7.47;56.67
76260;BME280;65076;52.362;6.588;2023-03-16T07:51:56;101608.31;;;7.56;56.81
76260;BME280;65076;52.362;6.588;2023-03-16T07:54:24;101610.75;;;7.67;56.20
76260;BME280;65076;52.362;6.588;2023-03-16T07:56:53;101606.63;;;7.89;56.38
76260;BME280;65076;52.362;6.588;2023-03-16T07:59:21;101608.84;;;8.06;56.15
76260;BME280;65076;52.362;6.588;2023-03-16T08:01:49;101605.66;;;7.90;56.35
76260;BME280;65076;52.362;6.588;2023-03-16T08:04:17;101606.00;;;8.12;56.40
76260;BME280;65076;52.362;6.588;2023-03-16T08:06:46;101609.16;;;7.95;56.96
76260;BME280;65076;52.362;6.588;2023-03-16T08:09:14;101607.03;;;8.06;55.46
76260;BME280;65076;52.362;6.588;2023-03-16T08:11:42;101606.75;;;7.83;57.35
76260;BME280;65076;52.362;6.588;2023-03-16T08:14:10;101609.94;;;7.99;55.71
76260;BME280;65076;52.362;6.588;2023-03-16T08:16:38;101612.81;;;7.93;57.08
76260;BME280;65076;52.362;6.588;2023-03-16T08:19:05;101606.28;;;8.01;56.99
76260;BME280;65076;52.362;6.588;2023-03-16T08:21:34;101608.56;;;8.17;56.79
76260;BME280;65076;52.362;6.588;2023-03-16T08:24:23;101626.13;;;7.99;57.01
76260;BME280;65076;52.362;6.588;2023-03-16T08:26:52;101615.72;;;7.84;58.06
76260;BME280;65076;52.362;6.588;2023-03-16T08:29:21;101616.41;;;7.55;58.78
76260;BME280;65076;52.362;6.588;2023-03-16T08:31:51;101622.66;;;7.57;59.53
76260;BME280;65076;52.362;6.588;2023-03-16T08:34:22;101609.25;;;7.91;59.71
76260;BME280;65076;52.362;6.588;2023-03-16T08:36:50;101610.69;;;8.05;58.37
76260;BME280;65076;52.362;6.588;2023-03-16T08:39:19;101605.38;;;8.01;58.04
76260;BME280;65076;52.362;6.588;2023-03-16T08:41:48;101608.16;;;7.99;58.67
76260;BME280;65076;52.362;6.588;2023-03-16T08:44:16;101599.41;;;8.24;58.04
76260;BME280;65076;52.362;6.588;2023-03-16T08:46:45;101602.25;;;8.19;57.12
76260;BME280;65076;52.362;6.588;2023-03-16T08:49:13;101596.66;;;8.27;57.58
76260;BME280;65076;52.362;6.588;2023-03-16T08:51:41;101612.53;;;8.03;57.90
76260;BME280;65076;52.362;6.588;2023-03-16T08:54:10;101608.53;;;8.18;58.70
76260;BME280;65076;52.362;6.588;2023-03-16T08:56:38;101603.13;;;8.20;58.64
76260;BME280;65076;52.362;6.588;2023-03-16T08:59:08;101601.31;;;8.20;57.97
76260;BME280;65076;52.362;6.588;2023-03-16T09:01:54;101608.75;;;8.11;58.58
76260;BME280;65076;52.362;6.588;2023-03-16T09:04:22;101601.88;;;8.33;59.35
76260;BME280;65076;52.362;6.588;2023-03-16T09:06:50;101603.97;;;7.86;60.33
76260;BME280;65076;52.362;6.588;2023-03-16T09:09:34;101603.38;;;8.11;61.32
76260;BME280;65076;52.362;6.588;2023-03-16T09:12:02;101608.28;;;7.95;61.90
76260;BME280;65076;52.362;6.588;2023-03-16T09:14:32;101597.06;;;7.75;63.28
76260;BME280;65076;52.362;6.588;2023-03-16T09:17:04;101607.78;;;7.78;63.54
76260;BME280;65076;52.362;6.588;2023-03-16T09:19:33;101612.19;;;7.82;63.14
76260;BME280;65076;52.362;6.588;2023-03-16T09:22:20;101616.22;;;7.64;64.41
76260;BME280;65076;52.362;6.588;2023-03-16T09:24:49;101603.78;;;7.58;64.58
76260;BME280;65076;52.362;6.588;2023-03-16T09:27:17;101603.44;;;7.72;65.66
76260;BME280;65076;52.362;6.588;2023-03-16T09:29:47;101597.09;;;7.38;65.22
76260;BME280;65076;52.362;6.588;2023-03-16T09:32:16;101589.72;;;7.46;66.49
76260;BME280;65076;52.362;6.588;2023-03-16T09:34:44;101593.09;;;7.54;66.93
76260;BME280;65076;52.362;6.588;2023-03-16T09:37:12;101595.50;;;7.66;66.55
76260;BME280;65076;52.362;6.588;2023-03-16T09:39:41;101596.81;;;7.85;67.53
76260;BME280;65076;52.362;6.588;2023-03-16T09:42:16;101583.00;;;7.99;67.54
76260;BME280;65076;52.362;6.588;2023-03-16T09:44:58;101588.28;;;8.03;66.73
76260;BME280;65076;52.362;6.588;2023-03-16T09:47:36;101590.72;;;7.79;66.74
76260;BME280;65076;52.362;6.588;2023-03-16T09:50:12;101579.13;;;8.11;66.37
76260;BME280;65076;52.362;6.588;2023-03-16T09:52:53;101581.63;;;7.83;66.01
76260;BME280;65076;52.362;6.588;2023-03-16T09:55:30;101582.44;;;8.20;65.79
76260;BME280;65076;52.362;6.588;2023-03-16T09:58:16;101577.53;;;8.02;67.00
76260;BME280;65076;52.362;6.588;2023-03-16T10:00:54;101581.03;;;8.39;66.16
76260;BME280;65076;52.362;6.588;2023-03-16T10:03:38;101562.84;;;8.14;66.19
76260;BME280;65076;52.362;6.588;2023-03-16T10:06:22;101554.44;;;8.26;66.17
76260;BME280;65076;52.362;6.588;2023-03-16T10:09:01;101559.97;;;8.21;66.31
76260;BME280;65076;52.362;6.588;2023-03-16T10:11:41;101533.66;;;8.31;66.67
76260;BME280;65076;52.362;6.588;2023-03-16T10:14:20;101531.50;;;8.43;65.38
76260;BME280;65076;52.362;6.588;2023-03-16T10:16:57;101533.72;;;8.60;65.75
76260;BME280;65076;52.362;6.588;2023-03-16T10:19:33;101531.91;;;8.61;64.52
76260;BME280;65076;52.362;6.588;2023-03-16T10:22:14;101545.28;;;8.64;64.16
76260;BME280;65076;52.362;6.588;2023-03-16T10:24:55;101539.06;;;8.62;64.58
76260;BME280;65076;52.362;6.588;2023-03-16T10:27:32;101528.31;;;8.60;63.67
76260;BME280;65076;52.362;6.588;2023-03-16T10:30:05;101524.41;;;8.70;64.11
76260;BME280;65076;52.362;6.588;2023-03-16T10:32:46;101534.50;;;8.64;64.35
76260;BME280;65076;52.362;6.588;2023-03-16T10:35:21;101522.28;;;8.81;63.29
76260;BME280;65076;52.362;6.588;2023-03-16T10:38:01;101521.31;;;8.84;64.24
76260;BME280;65076;52.362;6.588;2023-03-16T10:40:30;101522.25;;;8.83;63.50
76260;BME280;65076;52.362;6.588;2023-03-16T10:43:05;101507.34;;;8.99;62.61
76260;BME280;65076;52.362;6.588;2023-03-16T10:45:35;101524.03;;;9.12;62.43
76260;BME280;65076;52.362;6.588;2023-03-16T10:48:12;101517.31;;;8.97;62.22
76260;BME280;65076;52.362;6.588;2023-03-16T10:50:42;101508.44;;;8.93;61.68
76260;BME280;65076;52.362;6.588;2023-03-16T10:53:15;101521.25;;;9.15;61.96
76260;BME280;65076;52.362;6.588;2023-03-16T10:55:48;101505.44;;;9.03;62.04
76260;BME280;65076;52.362;6.588;2023-03-16T10:58:23;101514.41;;;9.03;61.23
76260;BME280;65076;52.362;6.588;2023-03-16T11:00:56;101523.69;;;9.22;61.15
76260;BME280;65076;52.362;6.588;2023-03-16T11:03:27;101518.88;;;9.32;61.25
76260;BME280;65076;52.362;6.588;2023-03-16T11:05:59;101511.13;;;9.49;60.19
76260;BME280;65076;52.362;6.588;2023-03-16T11:08:31;101519.84;;;9.31;60.64
76260;BME280;65076;52.362;6.588;2023-03-16T11:11:07;101500.44;;;9.46;60.27
76260;BME280;65076;52.362;6.588;2023-03-16T11:13:43;101495.69;;;9.53;59.26
76260;BME280;65076;52.362;6.588;2023-03-16T11:16:22;101500.34;;;9.48;59.17
76260;BME280;65076;52.362;6.588;2023-03-16T11:18:57;101506.44;;;9.54;59.88
76260;BME280;65076;52.362;6.588;2023-03-16T11:21:37;101499.50;;;9.47;59.76
76260;BME280;65076;52.362;6.588;2023-03-16T11:24:18;101494.34;;;9.40;59.38
76260;BME280;65076;52.362;6.588;2023-03-16T11:26:53;101497.16;;;9.37;58.39
76260;BME280;65076;52.362;6.588;2023-03-16T11:29:27;101491.75;;;9.37;59.64
76260;BME280;65076;52.362;6.588;2023-03-16T11:32:04;101491.69;;;9.38;60.15
76260;BME280;65076;52.362;6.588;2023-03-16T11:34:43;101486.72;;;9.26;59.58
76260;BME280;65076;52.362;6.588;2023-03-16T11:37:18;101471.13;;;9.60;59.06
76260;BME280;65076;52.362;6.588;2023-03-16T11:39:59;101473.94;;;9.84;58.17
76260;BME280;65076;52.362;6.588;2023-03-16T11:42:45;101461.19;;;9.87;57.32
76260;BME280;65076;52.362;6.588;2023-03-16T11:45:26;101467.91;;;10.00;57.09
76260;BME280;65076;52.362;6.588;2023-03-16T11:48:24;101454.69;;;10.17;57.19
76260;BME280;65076;52.362;6.588;2023-03-16T11:51:10;101450.38;;;10.60;55.44
76260;BME280;65076;52.362;6.588;2023-03-16T11:53:51;101433.78;;;10.69;55.94
76260;BME280;65076;52.362;6.588;2023-03-16T11:56:33;101433.88;;;11.11;53.64
76260;BME280;65076;52.362;6.588;2023-03-16T11:59:20;101440.13;;;11.13;52.60
76260;BME280;65076;52.362;6.588;2023-03-16T12:02:21;101434.72;;;11.35;52.50
76260;BME280;65076;52.362;6.588;2023-03-16T12:05:30;101418.75;;;11.69;51.81
76260;BME280;65076;52.362;6.588;2023-03-16T12:08:21;101422.38;;;11.90;51.86
76260;BME280;65076;52.362;6.588;2023-03-16T12:11:02;101413.59;;;12.63;50.24
76260;BME280;65076;52.362;6.588;2023-03-16T12:13:45;101414.19;;;12.30;51.20
76260;BME280;65076;52.362;6.588;2023-03-16T12:16:31;101402.13;;;12.38;49.82
76260;BME280;65076;52.362;6.588;2023-03-16T12:19:19;101393.34;;;12.12;50.36
76260;BME280;65076;52.362;6.588;2023-03-16T12:21:59;101395.47;;;12.06;50.38
76260;BME280;65076;52.362;6.588;2023-03-16T12:24:39;101392.56;;;11.90;50.42
76260;BME280;65076;52.362;6.588;2023-03-16T12:27:13;101387.88;;;11.94;49.92
76260;BME280;65076;52.362;6.588;2023-03-16T12:29:52;101392.00;;;11.62;50.91
76260;BME280;65076;52.362;6.588;2023-03-16T12:32:34;101389.88;;;11.68;50.87
76260;BME280;65076;52.362;6.588;2023-03-16T12:35:26;101387.66;;;11.58;51.06
76260;BME280;65076;52.362;6.588;2023-03-16T12:38:17;101377.53;;;11.41;51.31
76260;BME280;65076;52.362;6.588;2023-03-16T12:41:07;101378.88;;;11.31;51.45
76260;BME280;65076;52.362;6.588;2023-03-16T12:43:53;101381.09;;;11.21;52.72
76260;BME280;65076;52.362;6.588;2023-03-16T12:46:40;101375.47;;;11.26;51.89
76260;BME280;65076;52.362;6.588;2023-03-16T12:49:15;101363.94;;;11.42;52.21
76260;BME280;65076;52.362;6.588;2023-03-16T12:51:44;101361.75;;;11.30;52.12
76260;BME280;65076;52.362;6.588;2023-03-16T12:54:18;101361.63;;;11.33;52.40
76260;BME280;65076;52.362;6.588;2023-03-16T12:56:58;101361.22;;;11.42;51.32
76260;BME280;65076;52.362;6.588;2023-03-16T12:59:37;101359.75;;;11.35;51.55
76260;BME280;65076;52.362;6.588;2023-03-16T13:02:13;101351.97;;;11.26;51.91
76260;BME280;65076;52.362;6.588;2023-03-16T13:04:46;101355.06;;;11.59;50.76
76260;BME280;65076;52.362;6.588;2023-03-16T13:07:23;101347.88;;;11.38;51.18
76260;BME280;65076;52.362;6.588;2023-03-16T13:09:55;101322.06;;;11.70;50.22
76260;BME280;65076;52.362;6.588;2023-03-16T13:12:30;101327.16;;;11.98;50.15
76260;BME280;65076;52.362;6.588;2023-03-16T13:15:21;101328.28;;;12.50;49.45
76260;BME280;65076;52.362;6.588;2023-03-16T13:18:03;101336.31;;;12.70;48.36
76260;BME280;65076;52.362;6.588;2023-03-16T13:20:53;101326.88;;;12.96;47.21
76260;BME280;65076;52.362;6.588;2023-03-16T13:23:25;101320.69;;;13.45;46.86
76260;BME280;65076;52.362;6.588;2023-03-16T13:26:12;101314.34;;;13.96;45.27